createdAt,value
2019-05-30T00:00:50.593Z,53.82
2019-05-30T00:03:23.190Z,54.65
2019-05-30T00:05:56.304Z,55.48
2019-05-30T00:08:29.147Z,55.93
2019-05-30T00:11:03.264Z,56.44
2019-05-30T00:13:35.988Z,57.70
2019-05-30T00:16:08.729Z,58.63
2019-05-30T00:18:41.407Z,59.14
2019-05-30T00:21:14.087Z,59.38
2019-05-30T00:23:46.654Z,59.85
2019-05-30T00:26:19.338Z,60.71
2019-05-30T00:28:53.443Z,60.76
2019-05-30T00:31:26.124Z,61.50
2019-05-30T00:33:59.552Z,61.66
2019-05-30T00:36:32.407Z,66.66
2019-05-30T00:39:06.575Z,58.42
2019-05-30T00:41:39.505Z,50.25
2019-05-30T00:44:12.184Z,51.04
2019-05-30T00:46:44.866Z,53.36
2019-05-30T00:49:17.442Z,53.86
2019-05-30T00:51:50.126Z,55.42
2019-05-30T00:54:22.695Z,56.65
2019-05-30T00:56:56.510Z,57.36
2019-05-30T00:59:29.290Z,58.28
2019-05-30T01:02:02.775Z,59.39
2019-05-30T01:04:36.690Z,59.83
2019-05-30T01:07:08.969Z,60.62
2019-05-30T01:09:41.528Z,61.57
2019-05-30T01:12:14.220Z,66.98
2019-05-30T01:14:46.791Z,58.32
2019-05-30T01:17:19.473Z,51.85
2019-05-30T01:19:52.046Z,53.06
2019-05-30T01:22:24.725Z,55.09
2019-05-30T01:24:57.407Z,56.29
2019-05-30T01:27:30.444Z,57.22
2019-05-30T01:30:03.700Z,58.42
2019-05-30T01:32:36.569Z,59.15
2019-05-30T01:35:10.326Z,59.89
2019-05-30T01:37:42.961Z,60.46
2019-05-30T01:40:15.742Z,61.45
2019-05-30T01:42:49.540Z,66.61
2019-05-30T01:45:21.741Z,57.89
2019-05-30T01:47:54.545Z,51.37
2019-05-30T01:50:27.171Z,52.62
2019-05-30T01:53:00.397Z,54.20
2019-05-30T01:55:33.551Z,55.61
2019-05-30T01:58:07.125Z,56.90
2019-05-30T02:00:42.161Z,57.77
2019-05-30T02:03:14.975Z,58.58
2019-05-30T02:05:47.859Z,59.43
2019-05-30T02:08:21.150Z,60.38
2019-05-30T02:10:53.720Z,61.11
2019-05-30T02:13:26.405Z,61.75
2019-05-30T02:15:59.599Z,67.25
2019-05-30T02:18:32.882Z,58.34
2019-05-30T02:21:06.080Z,51.60
2019-05-30T02:23:38.760Z,52.76
2019-05-30T02:26:11.431Z,55.12
2019-05-30T02:28:44.110Z,56.69
2019-05-30T02:31:37.360Z,57.61
2019-05-30T02:33:51.023Z,58.62
2019-05-30T02:36:25.122Z,59.44
2019-05-30T02:38:58.104Z,60.19
2019-05-30T02:41:30.677Z,61.08
2019-05-30T02:44:05.299Z,61.85
2019-05-30T02:46:37.584Z,67.10
2019-05-30T02:49:11.864Z,58.08
2019-05-30T02:51:44.300Z,51.77
2019-05-30T02:54:16.954Z,53.04
2019-05-30T02:56:49.186Z,55.04
2019-05-30T02:59:21.890Z,56.69
2019-05-30T03:02:01.855Z,57.57
2019-05-30T03:04:29.409Z,58.48
2019-05-30T03:07:03.858Z,59.38
2019-05-30T03:09:36.305Z,59.75
2019-05-30T03:12:11.016Z,60.89
2019-05-30T03:14:43.211Z,61.63
2019-05-30T03:17:17.160Z,67.12
2019-05-30T03:19:49.529Z,58.58
2019-05-30T03:22:22.146Z,52.14
2019-05-30T03:24:54.879Z,53.66
2019-05-30T03:27:27.512Z,55.57
2019-05-30T03:30:00.093Z,56.92
2019-05-30T03:33:05.315Z,57.85
2019-05-30T03:35:18.614Z,58.64
2019-05-30T03:37:43.869Z,59.07
2019-05-30T03:40:18.504Z,60.25
2019-05-30T03:42:51.573Z,61.30
2019-05-30T03:45:28.194Z,61.65
2019-05-30T03:48:07.406Z,67.26
2019-05-30T03:50:44.966Z,58.12
2019-05-30T03:53:17.765Z,52.48
2019-05-30T03:55:54.152Z,54.18
2019-05-30T03:58:50.861Z,55.80
2019-05-30T04:01:36.757Z,56.98
2019-05-30T04:04:19.775Z,57.68
2019-05-30T04:06:57.139Z,58.37
2019-05-30T04:09:32.086Z,58.97
2019-05-30T04:12:10.600Z,59.49
2019-05-30T04:14:46.972Z,59.92
2019-05-30T04:17:20.012Z,60.10
2019-05-30T04:19:53.048Z,60.19
2019-05-30T04:22:25.725Z,60.41
2019-05-30T04:24:57.945Z,60.67
2019-05-30T04:27:30.571Z,62.52
2019-05-30T04:30:03.159Z,64.09
2019-05-30T04:32:35.833Z,53.03
2019-05-30T04:35:10.144Z,50.02
2019-05-30T04:37:42.822Z,51.59
2019-05-30T04:40:17.433Z,52.76
2019-05-30T04:42:50.127Z,53.61
2019-05-30T04:45:27.557Z,54.60
2019-05-30T04:47:57.950Z,56.09
2019-05-30T04:50:30.619Z,55.91
2019-05-30T04:53:03.309Z,55.84
2019-05-30T04:55:35.993Z,56.51
2019-05-30T04:58:08.710Z,56.88
2019-05-30T05:00:41.346Z,58.57
2019-05-30T05:03:15.494Z,58.33
2019-05-30T05:05:48.344Z,58.03
2019-05-30T05:08:21.969Z,58.14
2019-05-30T05:10:54.513Z,58.52
2019-05-30T05:13:27.498Z,59.06
2019-05-30T05:16:00.075Z,59.46
2019-05-30T05:18:52.872Z,59.53
2019-05-30T05:21:25.518Z,60.35
2019-05-30T05:23:58.202Z,59.84
2019-05-30T05:26:30.885Z,60.12
2019-05-30T05:29:03.479Z,61.51
2019-05-30T05:31:37.157Z,60.34
2019-05-30T05:34:09.742Z,60.43
2019-05-30T05:36:42.423Z,60.86
2019-05-30T05:39:16.148Z,62.59
2019-05-30T05:41:48.898Z,59.92
2019-05-30T05:44:22.365Z,51.65
2019-05-30T05:46:55.287Z,52.01
2019-05-30T05:49:28.872Z,52.24
2019-05-30T05:52:01.870Z,52.90
2019-05-30T05:54:34.553Z,52.57
2019-05-30T05:57:07.233Z,53.86
2019-05-30T05:59:39.802Z,54.65
2019-05-30T06:02:12.669Z,54.87
2019-05-30T06:04:45.465Z,54.96
2019-05-30T06:07:18.248Z,53.84
2019-05-30T06:09:50.938Z,52.93
2019-05-30T06:12:23.864Z,53.68
2019-05-30T06:14:56.336Z,52.87
2019-05-30T06:17:29.311Z,51.68
2019-05-30T06:20:02.266Z,52.13
2019-05-30T06:22:35.450Z,54.20
2019-05-30T06:25:09.096Z,52.89
2019-05-30T06:27:42.049Z,55.69
2019-05-30T06:30:16.362Z,54.60
2019-05-30T06:32:49.341Z,53.68
2019-05-30T06:35:23.019Z,53.03
2019-05-30T06:37:55.937Z,52.96
2019-05-30T06:40:30.878Z,53.29
2019-05-30T06:43:03.037Z,54.45
2019-05-30T06:45:35.712Z,51.81
2019-05-30T06:48:08.381Z,51.18
2019-05-30T06:50:40.972Z,49.93
2019-05-30T06:53:14.665Z,49.71
2019-05-30T06:55:47.352Z,49.13
2019-05-30T06:58:35.318Z,48.90
2019-05-30T07:00:54.239Z,49.89
2019-05-30T07:03:28.341Z,40.24
2019-05-30T07:06:01.506Z,40.70
2019-05-30T07:08:34.845Z,40.88
2019-05-30T07:11:07.523Z,39.91
2019-05-30T07:13:40.204Z,38.17
2019-05-30T07:16:12.882Z,40.13
2019-05-30T07:18:45.559Z,39.07
2019-05-30T07:21:18.243Z,41.91
2019-05-30T07:23:50.924Z,40.42
2019-05-30T07:26:23.908Z,39.77
2019-05-30T07:28:56.709Z,39.71
2019-05-30T07:31:30.206Z,40.79
2019-05-30T07:34:03.161Z,39.76
2019-05-30T07:36:35.736Z,39.56
2019-05-30T07:39:11.286Z,40.42
2019-05-30T07:41:43.972Z,38.05
2019-05-30T07:44:16.651Z,38.93
2019-05-30T07:46:48.866Z,38.30
2019-05-30T07:49:21.594Z,39.38
2019-05-30T07:51:53.832Z,40.56
2019-05-30T07:54:26.860Z,37.45
2019-05-30T07:56:59.526Z,39.77
2019-05-30T07:59:34.292Z,38.75
2019-05-30T08:02:07.566Z,38.04
2019-05-30T08:04:41.130Z,38.69
2019-05-30T08:07:13.734Z,36.01
2019-05-30T08:09:45.986Z,36.53
2019-05-30T08:12:18.418Z,36.01
2019-05-30T08:14:51.054Z,36.50
2019-05-30T08:17:23.621Z,36.78
2019-05-30T08:19:55.868Z,37.43
2019-05-30T08:22:29.848Z,37.13
2019-05-30T08:25:02.898Z,36.82
2019-05-30T08:27:36.445Z,37.93
2019-05-30T08:30:13.682Z,35.63
2019-05-30T08:32:47.888Z,35.36
2019-05-30T08:35:20.567Z,35.11
2019-05-30T08:37:53.155Z,35.80
2019-05-30T08:40:25.832Z,35.85
2019-05-30T08:42:59.221Z,35.39
2019-05-30T08:45:31.899Z,34.25
2019-05-30T08:48:04.883Z,35.74
2019-05-30T08:50:41.290Z,35.66
2019-05-30T08:53:11.886Z,35.26
2019-05-30T08:55:45.185Z,35.49
2019-05-30T08:58:17.749Z,35.67
2019-05-30T09:00:50.836Z,33.61
2019-05-30T09:03:24.761Z,34.97
2019-05-30T09:06:03.818Z,33.31
2019-05-30T09:08:31.846Z,32.30
2019-05-30T09:11:04.677Z,33.11
2019-05-30T09:13:38.859Z,34.38
2019-05-30T09:16:11.936Z,33.93
2019-05-30T09:18:45.269Z,33.72
2019-05-30T09:21:18.072Z,36.28
2019-05-30T09:23:50.992Z,35.23
2019-05-30T09:26:23.684Z,35.06
2019-05-30T09:28:56.776Z,34.20
2019-05-30T09:31:29.511Z,34.37
2019-05-30T09:34:02.132Z,33.12
2019-05-30T09:36:34.816Z,32.63
2019-05-30T09:39:09.706Z,33.22
2019-05-30T09:41:43.736Z,32.95
2019-05-30T09:44:16.529Z,34.34
2019-05-30T09:46:50.416Z,34.27
2019-05-30T09:49:23.025Z,33.16
2019-05-30T09:51:55.698Z,32.91
2019-05-30T09:54:27.914Z,32.76
2019-05-30T09:57:00.645Z,33.39
2019-05-30T09:59:33.213Z,31.62
2019-05-30T10:02:06.009Z,33.05
2019-05-30T10:04:38.788Z,33.21
2019-05-30T10:07:11.468Z,33.12
2019-05-30T10:09:45.622Z,33.33
2019-05-30T10:12:18.770Z,32.69
2019-05-30T10:14:52.836Z,33.01
2019-05-30T10:17:25.785Z,32.46
2019-05-30T10:19:58.433Z,33.97
2019-05-30T10:22:31.023Z,33.11
2019-05-30T10:25:03.702Z,32.71
2019-05-30T10:27:36.439Z,31.89
2019-05-30T10:30:12.109Z,32.72
2019-05-30T10:32:45.413Z,30.52
2019-05-30T10:35:19.440Z,31.04
2019-05-30T10:37:52.842Z,31.18
2019-05-30T10:40:25.708Z,31.79
2019-05-30T10:42:59.206Z,34.06
2019-05-30T10:45:32.029Z,33.02
2019-05-30T10:48:04.687Z,34.70
2019-05-30T10:50:37.653Z,31.76
2019-05-30T10:53:10.335Z,33.67
2019-05-30T10:55:42.954Z,31.58
2019-05-30T10:58:15.585Z,29.94
2019-05-30T11:00:53.421Z,30.83
2019-05-30T11:03:28.944Z,31.41
2019-05-30T11:06:17.983Z,29.51
2019-05-30T11:08:52.854Z,31.00
2019-05-30T11:11:25.924Z,31.04
2019-05-30T11:13:58.798Z,31.04
2019-05-30T11:16:32.497Z,29.95
2019-05-30T11:21:39.086Z,30.16
2019-05-30T11:24:13.127Z,31.35
2019-05-30T11:26:45.787Z,30.90
2019-05-30T11:29:18.481Z,30.58
2019-05-30T11:31:53.389Z,30.81
2019-05-30T11:34:26.179Z,30.52
2019-05-30T11:36:59.331Z,29.33
2019-05-30T11:39:33.077Z,29.74
2019-05-30T11:42:05.863Z,28.37
2019-05-30T11:44:38.535Z,30.12
2019-05-30T11:47:11.201Z,29.80
2019-05-30T11:49:46.845Z,28.10
2019-05-30T11:52:19.529Z,28.90
2019-05-30T11:54:52.093Z,28.74
2019-05-30T11:57:24.903Z,28.82
2019-05-30T11:59:58.336Z,28.74
2019-05-30T12:02:31.486Z,28.99
2019-05-30T12:05:04.371Z,28.38
2019-05-30T12:07:37.179Z,28.51
2019-05-30T12:10:10.842Z,27.17
2019-05-30T12:12:43.535Z,27.97
2019-05-30T12:15:16.106Z,29.69
2019-05-30T12:17:48.996Z,28.26
2019-05-30T12:20:21.230Z,28.42
2019-05-30T12:22:53.807Z,28.80
2019-05-30T12:25:26.215Z,28.44
2019-05-30T12:28:00.082Z,26.62
2019-05-30T12:30:32.903Z,26.45
2019-05-30T12:33:05.620Z,26.36
2019-05-30T12:35:38.254Z,26.68
2019-05-30T12:38:10.946Z,26.29
2019-05-30T12:40:43.621Z,24.68
2019-05-30T12:43:16.300Z,24.81
2019-05-30T12:45:49.698Z,25.08
2019-05-30T12:48:22.366Z,24.61
2019-05-30T12:50:55.251Z,24.99
2019-05-30T12:53:28.144Z,23.94
2019-05-30T12:56:00.821Z,23.11
2019-05-30T12:58:33.072Z,24.56
2019-05-30T13:01:06.847Z,24.07
2019-05-30T13:03:39.975Z,24.07
2019-05-30T13:06:12.207Z,23.94
2019-05-30T13:08:45.142Z,23.68
2019-05-30T13:11:17.833Z,24.11
2019-05-30T13:13:50.486Z,25.50
2019-05-30T13:16:23.064Z,24.74
2019-05-30T13:18:55.950Z,22.27
2019-05-30T13:21:28.845Z,22.82
2019-05-30T13:24:02.116Z,23.10
2019-05-30T13:26:34.918Z,22.35
2019-05-30T13:29:07.837Z,23.20
2019-05-30T13:31:40.473Z,23.12
2019-05-30T13:34:13.160Z,22.70
2019-05-30T13:36:45.850Z,22.23
2019-05-30T13:39:18.620Z,22.93
2019-05-30T13:41:51.404Z,22.45
2019-05-30T13:44:24.172Z,22.95
2019-05-30T13:46:56.908Z,23.20
2019-05-30T13:49:30.874Z,22.13
2019-05-30T13:52:05.023Z,21.62
2019-05-30T13:54:37.978Z,21.79
2019-05-30T13:57:10.653Z,21.35
2019-05-30T13:59:43.331Z,21.11
2019-05-30T14:02:15.908Z,21.84
2019-05-30T14:04:48.583Z,21.61
2019-05-30T14:07:21.175Z,21.43
2019-05-30T14:09:53.843Z,18.67
2019-05-30T14:12:27.742Z,19.33
2019-05-30T14:15:01.139Z,18.23
2019-05-30T14:17:35.969Z,17.81
2019-05-30T14:20:11.259Z,17.61
2019-05-30T14:22:44.407Z,17.93
2019-05-30T14:25:17.711Z,17.74
2019-05-30T14:27:51.721Z,17.64
2019-05-30T14:30:25.617Z,18.55
2019-05-30T14:32:58.295Z,17.90
2019-05-30T14:35:31.274Z,17.69
2019-05-30T14:38:04.690Z,17.58
2019-05-30T14:40:37.771Z,17.61
2019-05-30T14:43:11.414Z,17.37
2019-05-30T14:45:44.360Z,17.70
2019-05-30T14:48:16.978Z,17.12
2019-05-30T14:50:49.725Z,17.04
2019-05-30T14:53:21.946Z,16.75
2019-05-30T14:55:54.399Z,16.40
2019-05-30T14:58:27.037Z,17.50
2019-05-30T15:00:59.301Z,16.76
2019-05-30T15:03:32.499Z,18.17
2019-05-30T15:06:06.879Z,17.58
2019-05-30T15:08:39.496Z,17.07
2019-05-30T15:11:12.166Z,16.89
2019-05-30T15:13:44.743Z,15.93
2019-05-30T15:16:17.225Z,16.64
2019-05-30T15:18:50.315Z,16.48
2019-05-30T15:21:22.996Z,17.07
2019-05-30T15:23:55.672Z,16.92
2019-05-30T15:26:28.342Z,16.38
2019-05-30T15:29:00.933Z,16.13
2019-05-30T15:31:33.598Z,16.02
2019-05-30T15:34:06.595Z,15.18
2019-05-30T15:36:39.267Z,15.77
2019-05-30T15:39:11.497Z,16.12
2019-05-30T15:41:44.115Z,15.57
2019-05-30T15:44:17.731Z,16.02
2019-05-30T15:46:50.267Z,15.75
2019-05-30T15:49:22.876Z,15.18
2019-05-30T15:51:55.543Z,15.20
2019-05-30T15:54:27.771Z,15.29
2019-05-30T15:57:00.404Z,15.84
2019-05-30T15:59:33.084Z,15.41
2019-05-30T16:02:05.765Z,15.26
2019-05-30T16:04:38.430Z,15.87
2019-05-30T16:07:11.105Z,16.36
2019-05-30T16:09:46.998Z,15.50
2019-05-30T16:12:19.382Z,15.29
2019-05-30T16:14:52.440Z,15.11
2019-05-30T16:17:25.318Z,14.97
2019-05-30T16:19:57.900Z,15.35
2019-05-30T16:22:30.630Z,15.17
2019-05-30T16:25:03.295Z,15.39
2019-05-30T16:27:37.160Z,15.64
2019-05-30T16:30:12.077Z,15.88
2019-05-30T16:32:45.126Z,15.65
2019-05-30T16:35:18.277Z,16.28
2019-05-30T16:37:51.041Z,15.29
2019-05-30T16:40:23.257Z,16.11
2019-05-30T16:42:55.897Z,15.68
2019-05-30T16:45:28.564Z,15.58
2019-05-30T16:48:01.250Z,16.04
2019-05-30T16:50:33.836Z,15.89
2019-05-30T16:53:06.628Z,15.62
2019-05-30T16:55:39.282Z,15.83
2019-05-30T16:58:12.065Z,15.95
2019-05-30T17:00:44.340Z,16.04
2019-05-30T17:03:17.772Z,16.23
2019-05-30T17:05:52.396Z,15.98
2019-05-30T17:08:24.943Z,16.23
2019-05-30T17:10:58.024Z,16.81
2019-05-30T17:13:31.388Z,16.44
2019-05-30T17:16:04.197Z,16.76
2019-05-30T17:18:36.981Z,16.82
2019-05-30T17:21:09.671Z,16.91
2019-05-30T17:23:42.351Z,16.95
2019-05-30T17:26:15.033Z,17.31
2019-05-30T17:28:47.924Z,17.49
2019-05-30T17:31:21.622Z,17.72
2019-05-30T17:33:54.502Z,18.01
2019-05-30T17:36:28.169Z,18.66
2019-05-30T17:39:00.639Z,19.45
2019-05-30T17:41:34.789Z,19.82
2019-05-30T17:44:07.461Z,20.35
2019-05-30T17:46:40.247Z,20.88
2019-05-30T17:49:12.921Z,21.61
2019-05-30T17:51:45.509Z,22.53
2019-05-30T17:54:17.772Z,23.41
2019-05-30T17:56:50.444Z,23.47
2019-05-30T17:59:22.710Z,24.55
2019-05-30T18:01:55.301Z,24.93
2019-05-30T18:04:28.609Z,25.76
2019-05-30T18:07:01.469Z,26.96
2019-05-30T18:09:34.159Z,27.35
2019-05-30T18:12:07.033Z,28.42
2019-05-30T18:14:39.709Z,28.25
2019-05-30T18:17:12.289Z,29.26
2019-05-30T18:19:44.983Z,29.88
2019-05-30T18:22:17.192Z,30.55
2019-05-30T18:24:49.821Z,31.88
2019-05-30T18:27:23.811Z,32.11
2019-05-30T18:29:56.161Z,32.69
2019-05-30T18:32:28.783Z,33.18
2019-05-30T18:35:01.564Z,34.31
2019-05-30T18:37:34.556Z,36.11
2019-05-30T18:40:09.382Z,35.82
2019-05-30T18:42:42.571Z,36.15
2019-05-30T18:45:18.732Z,37.49
2019-05-30T18:47:51.617Z,38.87
2019-05-30T18:50:25.188Z,39.86
2019-05-30T18:52:58.000Z,40.24
2019-05-30T18:55:30.753Z,41.10
2019-05-30T18:58:03.350Z,43.01
2019-05-30T19:00:36.025Z,44.51
2019-05-30T19:03:08.548Z,44.64
2019-05-30T19:05:41.190Z,44.63
2019-05-30T19:08:13.756Z,45.23
2019-05-30T19:10:46.433Z,46.02
2019-05-30T19:13:19.015Z,47.26
2019-05-30T19:15:51.481Z,47.94
2019-05-30T19:18:25.270Z,48.81
2019-05-30T19:20:58.190Z,50.16
2019-05-30T19:23:32.042Z,50.69
2019-05-30T19:26:04.575Z,51.37
2019-05-30T19:28:37.238Z,50.61
2019-05-30T19:31:09.921Z,51.50
2019-05-30T19:33:42.613Z,51.86
2019-05-30T19:36:15.281Z,51.74
2019-05-30T19:38:47.959Z,51.65
2019-05-30T19:41:21.979Z,51.69
2019-05-30T19:43:54.647Z,52.00
2019-05-30T19:46:28.074Z,51.67
2019-05-30T19:49:00.722Z,52.42
2019-05-30T19:51:33.403Z,53.71
2019-05-30T19:54:06.083Z,53.72
2019-05-30T19:56:41.661Z,53.97
2019-05-30T19:59:13.292Z,54.01
2019-05-30T20:01:45.967Z,54.82
2019-05-30T20:04:18.744Z,54.62
2019-05-30T20:06:51.425Z,55.40
2019-05-30T20:09:24.214Z,55.01
2019-05-30T20:12:03.231Z,55.38
2019-05-30T20:14:31.105Z,55.67
2019-05-30T20:17:03.790Z,55.54
2019-05-30T20:19:37.689Z,57.32
2019-05-30T20:22:10.473Z,56.94
2019-05-30T20:24:43.042Z,57.38
2019-05-30T20:27:15.423Z,57.08
2019-05-30T20:29:47.998Z,57.22
2019-05-30T20:32:20.783Z,57.09
2019-05-30T20:34:53.463Z,58.18
2019-05-30T20:37:26.141Z,57.51
2019-05-30T20:39:59.945Z,56.99
2019-05-30T20:42:32.616Z,56.49
2019-05-30T20:45:09.874Z,57.35
2019-05-30T20:47:43.089Z,56.89
2019-05-30T20:50:17.311Z,56.93
2019-05-30T20:52:50.202Z,57.44
2019-05-30T20:55:23.073Z,57.94
2019-05-30T20:57:55.756Z,58.27
2019-05-30T21:00:42.240Z,58.93
2019-05-30T21:03:15.153Z,59.62
2019-05-30T21:05:49.362Z,60.78
2019-05-30T21:08:23.276Z,60.57
2019-05-30T21:10:58.683Z,61.64
2019-05-30T21:13:36.223Z,61.04
2019-05-30T21:16:09.812Z,61.22
2019-05-30T21:18:46.190Z,61.86
2019-05-30T21:21:19.987Z,65.82
2019-05-30T21:23:52.661Z,56.56
2019-05-30T21:26:25.345Z,51.36
2019-05-30T21:28:58.948Z,52.01
2019-05-30T21:31:31.162Z,52.45
2019-05-30T21:34:04.155Z,52.84
2019-05-30T21:36:37.690Z,53.50
2019-05-30T21:39:11.493Z,54.40
2019-05-30T21:41:44.554Z,54.60
2019-05-30T21:44:17.373Z,54.59
2019-05-30T21:46:49.941Z,55.02
2019-05-30T21:49:22.622Z,54.89
2019-05-30T21:51:55.502Z,54.86
2019-05-30T21:54:28.187Z,55.82
2019-05-30T21:57:01.781Z,56.45
2019-05-30T21:59:34.472Z,56.81
2019-05-30T22:02:07.970Z,57.80
2019-05-30T22:04:40.498Z,56.81
2019-05-30T22:07:13.730Z,57.33
2019-05-30T22:09:45.978Z,58.26
2019-05-30T22:12:18.573Z,58.34
2019-05-30T22:14:52.393Z,58.89
2019-05-30T22:17:24.850Z,58.69
2019-05-30T22:19:57.544Z,59.05
2019-05-30T22:22:31.350Z,59.08
2019-05-30T22:25:04.130Z,59.50
2019-05-30T22:27:36.706Z,59.37
2019-05-30T22:30:09.680Z,59.48
2019-05-30T22:32:42.585Z,59.63
2019-05-30T22:35:15.552Z,59.80
2019-05-30T22:37:48.892Z,60.15
2019-05-30T22:40:21.843Z,60.29
2019-05-30T22:42:54.718Z,60.18
2019-05-30T22:45:27.707Z,60.68
2019-05-30T22:48:00.585Z,60.34
2019-05-30T22:50:33.382Z,60.70
2019-05-30T22:53:06.353Z,61.12
2019-05-30T22:55:39.357Z,61.12
2019-05-30T22:58:12.030Z,61.40
2019-05-30T23:00:45.947Z,62.53
2019-05-30T23:03:18.739Z,64.32
2019-05-30T23:05:51.636Z,52.85
2019-05-30T23:08:24.583Z,51.56
2019-05-30T23:10:57.567Z,52.95
2019-05-30T23:13:40.209Z,53.80
2019-05-30T23:16:05.129Z,54.61
2019-05-30T23:18:38.072Z,54.94
2019-05-30T23:21:11.059Z,55.45
2019-05-30T23:23:43.820Z,56.10
2019-05-30T23:26:16.732Z,56.62
2019-05-30T23:28:49.708Z,57.74
2019-05-30T23:31:22.687Z,57.64
2019-05-30T23:33:56.470Z,58.22
2019-05-30T23:36:28.954Z,58.71
2019-05-30T23:39:01.574Z,59.58
2019-05-30T23:41:35.871Z,59.37
2019-05-30T23:44:11.667Z,59.89
2019-05-30T23:46:42.349Z,60.23
2019-05-30T23:49:15.028Z,60.86
2019-05-30T23:51:47.706Z,61.29
2019-05-30T23:54:20.392Z,62.83
2019-05-30T23:56:54.596Z,63.40
2019-05-30T23:59:27.482Z,54.06
